Time;durP1;ratioP1;P1;durP2;ratioP2;P2;SDS_P1;SDS_P2;PMS_P1;PMS_P2;Temp;Humidity;BMP_temperature;BMP_pressure;BME280_temperature;BME280_humidity;BME280_pressure;Samples;Min_cycle;Max_cycle;Signal;HPM_P1;HPM_P2
2021/12/05 00:21:41;;;;;;;5.72;2.75;;;5.40;99.90;;;;;;5007126;28;20033;-82
2021/12/05 00:24:15;;;;;;;6.88;3.05;;;5.40;99.90;;;;;;5002810;28;20169;-79
2021/12/05 00:26:49;;;;;;;8.75;3.25;;;5.40;99.90;;;;;;5004426;28;20022;-80
2021/12/05 00:29:38;;;;;;;6.75;3.13;;;5.40;99.90;;;;;;5003916;28;20026;-79
2021/12/05 01:16:45;;;;;;;8.85;2.55;;;5.20;99.90;;;;;;4995765;28;20085;-80
2021/12/05 01:19:16;;;;;;;7.40;2.33;;;5.20;99.90;;;;;;4994637;28;20030;-79
2021/12/05 01:21:44;;;;;;;11.65;3.00;;;5.20;99.90;;;;;;4994217;28;20041;-80
2021/12/05 01:32:23;;;;;;;7.10;2.90;;;5.20;99.90;;;;;;4995551;28;20040;-80
2021/12/05 01:53:39;;;;;;;9.20;2.80;;;5.20;99.90;;;;;;4995572;28;20040;-80
2021/12/05 02:34:14;;;;;;;4.60;2.03;;;5.10;99.90;;;;;;4995483;28;20471;-81
2021/12/05 02:41:46;;;;;;;10.40;2.90;;;5.00;99.90;;;;;;4994940;28;20045;-81
2021/12/05 02:44:35;;;;;;;7.03;2.50;;;5.00;99.90;;;;;;4993761;28;20104;-82
2021/12/05 02:47:10;;;;;;;11.55;3.28;;;5.00;99.90;;;;;;4994902;28;20031;-80
2021/12/05 02:49:40;;;;;;;9.63;2.28;;;5.00;99.90;;;;;;4994916;28;20126;-80
2021/12/05 02:52:12;;;;;;;6.22;2.50;;;5.00;99.90;;;;;;4993891;28;20077;-81
2021/12/05 02:54:44;;;;;;;5.30;2.45;;;5.00;99.90;;;;;;4993567;28;20121;-80
2021/12/05 02:57:10;;;;;;;7.60;2.22;;;5.00;99.90;;;;;;4993750;28;20050;-80
2021/12/05 03:02:12;;;;;;;8.02;2.55;;;5.00;99.90;;;;;;4994568;28;20046;-81
2021/12/05 03:04:42;;;;;;;5.53;2.47;;;5.00;99.90;;;;;;4993428;28;20042;-80
2021/12/05 03:07:10;;;;;;;10.50;2.97;;;5.00;99.90;;;;;;4993631;28;20026;-80
2021/12/05 03:09:38;;;;;;;11.32;2.95;;;5.10;99.90;;;;;;4994852;28;20459;-81
2021/12/05 03:12:09;;;;;;;9.60;2.60;;;5.10;99.90;;;;;;4995136;28;20026;-80
2021/12/05 03:14:35;;;;;;;10.50;2.55;;;5.10;99.90;;;;;;4993591;28;20352;-81
2021/12/05 03:17:01;;;;;;;7.75;2.55;;;5.10;99.90;;;;;;4993715;28;20053;-81
2021/12/05 03:19:27;;;;;;;6.95;2.10;;;5.10;99.90;;;;;;4993986;28;20069;-81
2021/12/05 03:21:53;;;;;;;6.97;2.42;;;5.20;99.90;;;;;;4994988;28;20082;-80
2021/12/05 03:24:21;;;;;;;6.90;2.35;;;5.20;99.90;;;;;;4993469;28;20027;-81
2021/12/05 03:26:50;;;;;;;5.07;2.30;;;5.10;99.90;;;;;;4993640;28;20105;-80
2021/12/05 03:29:18;;;;;;;8.07;2.42;;;5.10;99.90;;;;;;4997363;28;20030;-81
2021/12/05 03:31:44;;;;;;;8.13;2.33;;;5.00;99.90;;;;;;4996669;28;20388;-81
2021/12/05 03:34:15;;;;;;;7.13;2.42;;;5.00;99.90;;;;;;4996094;28;20022;-81
2021/12/05 03:36:45;;;;;;;5.82;2.10;;;5.00;99.90;;;;;;4996207;28;20022;-82
2021/12/05 03:39:12;;;;;;;7.33;2.60;;;5.00;99.90;;;;;;4996572;28;20038;-80
2021/12/05 03:41:39;;;;;;;7.28;2.60;;;5.00;99.90;;;;;;4996974;28;20077;-82
2021/12/05 03:44:07;;;;;;;5.95;2.25;;;5.10;99.90;;;;;;4997361;28;20455;-81
2021/12/05 03:46:34;;;;;;;7.28;2.10;;;5.10;99.90;;;;;;4995654;28;20030;-81
2021/12/05 03:49:03;;;;;;;9.35;2.45;;;5.10;99.90;;;;;;4996581;28;20073;-81
2021/12/05 03:51:33;;;;;;;4.75;2.05;;;5.10;99.90;;;;;;4995855;28;20136;-81
2021/12/05 03:53:58;;;;;;;5.00;1.85;;;5.20;99.90;;;;;;4997400;28;20440;-81
2021/12/05 03:56:27;;;;;;;5.45;2.13;;;5.20;99.90;;;;;;4995444;28;20014;-80
2021/12/05 03:58:54;;;;;;;9.27;2.33;;;5.20;99.90;;;;;;4995667;28;20023;-81
2021/12/05 04:01:21;;;;;;;5.07;2.13;;;5.20;99.90;;;;;;4995580;28;20026;-80
2021/12/05 04:03:48;;;;;;;8.50;2.35;;;5.20;99.90;;;;;;4995669;28;20022;-79
2021/12/05 04:06:17;;;;;;;7.45;2.03;;;5.20;99.90;;;;;;4995425;28;20105;-80
2021/12/05 04:08:46;;;;;;;8.15;2.25;;;5.20;99.90;;;;;;4995333;28;20447;-80
2021/12/05 04:11:15;;;;;;;10.32;2.60;;;5.20;99.90;;;;;;4997048;28;20062;-81
2021/12/05 04:13:42;;;;;;;9.85;3.08;;;5.20;99.90;;;;;;4995289;28;20518;-80
2021/12/05 04:16:09;;;;;;;9.32;2.65;;;5.20;99.90;;;;;;4995508;28;20098;-81
2021/12/05 04:18:37;;;;;;;9.43;2.22;;;5.20;99.90;;;;;;4995625;28;20035;-80
2021/12/05 04:21:05;;;;;;;7.13;2.45;;;5.30;99.90;;;;;;4995390;28;20478;-80
2021/12/05 04:23:31;;;;;;;3.75;2.10;;;5.30;99.90;;;;;;4995089;28;20034;-80
2021/12/05 04:25:57;;;;;;;6.28;3.25;;;5.30;99.90;;;;;;4995108;28;20026;-81
2021/12/05 04:28:24;;;;;;;11.35;2.90;;;5.30;99.90;;;;;;4996053;28;20401;-81
2021/12/05 04:30:50;;;;;;;7.22;2.80;;;5.30;99.90;;;;;;4996826;28;20041;-81
2021/12/05 04:33:18;;;;;;;10.63;2.95;;;5.30;99.90;;;;;;4995316;28;20026;-81
2021/12/05 04:35:44;;;;;;;7.75;2.95;;;5.30;99.90;;;;;;4995170;28;20368;-80
2021/12/05 04:38:10;;;;;;;6.88;3.22;;;5.30;99.90;;;;;;4996024;28;20450;-80
2021/12/05 04:40:36;;;;;;;5.20;2.60;;;5.30;99.90;;;;;;4995160;28;20064;-80
2021/12/05 04:43:03;;;;;;;4.80;2.58;;;5.40;99.90;;;;;;4995635;28;20033;-80
2021/12/05 04:45:31;;;;;;;7.78;3.25;;;5.40;99.90;;;;;;4995935;28;20055;-82
2021/12/05 04:48:00;;;;;;;11.65;3.30;;;5.40;99.90;;;;;;4995210;28;20053;-80
2021/12/05 04:50:28;;;;;;;6.20;3.45;;;5.40;99.90;;;;;;4995335;28;20164;-81
2021/12/05 04:52:55;;;;;;;4.00;2.40;;;5.40;99.90;;;;;;4996709;28;20536;-80
2021/12/05 04:55:21;;;;;;;8.50;2.47;;;5.40;99.90;;;;;;4995476;28;20034;-79
2021/12/05 04:57:48;;;;;;;6.47;2.85;;;5.50;99.90;;;;;;4996946;28;20034;-81
2021/12/05 05:00:40;;;;;;;6.28;2.40;;;5.50;99.90;;;;;;4996729;28;20106;-80
2021/12/05 05:03:07;;;;;;;7.90;2.50;;;5.50;99.90;;;;;;4997719;28;20350;-80
2021/12/05 05:05:34;;;;;;;6.72;2.78;;;5.50;99.90;;;;;;4997649;28;20489;-81
2021/12/05 05:08:00;;;;;;;6.60;2.90;;;5.50;99.90;;;;;;4994763;28;20125;-80
2021/12/05 05:10:29;;;;;;;11.13;3.22;;;5.50;99.90;;;;;;4995005;28;20126;-80
2021/12/05 05:12:55;;;;;;;7.47;3.38;;;5.50;99.90;;;;;;4994200;28;20490;-79
2021/12/05 05:15:25;;;;;;;8.93;3.40;;;5.50;99.90;;;;;;4994017;28;20030;-80
2021/12/05 05:17:55;;;;;;;5.55;2.97;;;5.50;99.90;;;;;;4994895;28;20030;-81
2021/12/05 05:20:36;;;;;;;8.93;2.72;;;5.50;99.90;;;;;;4995979;28;20474;-81
2021/12/05 05:26:31;;;;;;;7.35;2.63;;;5.60;99.90;;;;;;4993781;28;19910;-81
2021/12/05 05:40:18;;;;;;;4.43;2.40;;;5.60;99.90;;;;;;4993720;28;20069;-81
2021/12/05 05:45:21;;;;;;;5.28;3.10;;;5.70;99.90;;;;;;4992379;28;20030;-78
2021/12/05 05:50:15;;;;;;;7.25;3.88;;;5.70;99.90;;;;;;4992244;28;20035;-80
2021/12/05 05:52:40;;;;;;;7.43;3.28;;;5.70;99.90;;;;;;4992372;28;20442;-78
2021/12/05 05:55:07;;;;;;;8.93;3.47;;;5.70;99.90;;;;;;4992262;28;20031;-79
2021/12/05 06:00:17;;;;;;;6.18;3.22;;;5.70;99.90;;;;;;4993497;28;20035;-78
2021/12/05 06:05:30;;;;;;;7.80;3.35;;;5.70;99.90;;;;;;4994435;28;20036;-78
2021/12/05 06:07:56;;;;;;;7.55;3.53;;;5.70;99.90;;;;;;4994676;28;20030;-80
2021/12/05 06:10:27;;;;;;;6.32;3.63;;;5.70;99.90;;;;;;4994288;28;20085;-79
2021/12/05 06:12:54;;;;;;;8.02;3.67;;;5.70;99.90;;;;;;4993626;28;20117;-79
2021/12/05 06:15:23;;;;;;;8.30;3.40;;;5.70;99.90;;;;;;4993286;28;20408;-78
2021/12/05 06:17:49;;;;;;;5.22;2.28;;;5.80;99.90;;;;;;4992944;28;20026;-80
2021/12/05 06:20:17;;;;;;;5.40;2.85;;;5.80;99.90;;;;;;4993670;28;20026;-79
2021/12/05 06:22:45;;;;;;;7.55;4.25;;;5.80;99.90;;;;;;4993422;28;20022;-79
2021/12/05 06:25:13;;;;;;;6.13;3.47;;;5.80;99.90;;;;;;4993709;28;20104;-79
2021/12/05 06:27:40;;;;;;;7.50;3.55;;;5.80;99.90;;;;;;4993720;28;20030;-78
2021/12/05 06:30:12;;;;;;;11.15;3.90;;;5.80;99.90;;;;;;4994006;28;20077;-79
2021/12/05 06:38:56;;;;;;;4.95;2.63;;;5.80;99.90;;;;;;4995105;28;20115;-78
2021/12/05 06:46:12;;;;;;;7.05;3.40;;;5.80;99.90;;;;;;4994504;28;20027;-79
2021/12/05 06:48:39;;;;;;;4.60;2.30;;;5.80;99.90;;;;;;4992527;28;20046;-79
2021/12/05 06:51:05;;;;;;;7.00;3.47;;;5.80;99.90;;;;;;4992552;28;20023;-79
2021/12/05 06:53:31;;;;;;;6.82;3.42;;;5.80;99.90;;;;;;4992744;28;20430;-78
2021/12/05 06:55:56;;;;;;;4.82;2.97;;;5.80;99.90;;;;;;4992863;28;20165;-79
2021/12/05 06:58:22;;;;;;;11.60;4.03;;;5.80;99.90;;;;;;4992912;28;20163;-79
2021/12/05 07:00:48;;;;;;;4.30;2.58;;;5.80;99.90;;;;;;4993938;28;20030;-77
2021/12/05 07:03:14;;;;;;;5.40;2.67;;;5.80;99.90;;;;;;4995000;28;20052;-77
2021/12/05 07:08:28;;;;;;;5.95;3.03;;;5.80;99.90;;;;;;4997385;28;20395;-76
2021/12/05 07:11:00;;;;;;;4.97;2.80;;;5.80;99.90;;;;;;4997239;28;20109;-74
2021/12/05 07:16:18;;;;;;;6.25;2.95;;;5.80;99.90;;;;;;4997371;28;20256;-76
2021/12/05 07:19:03;;;;;;;6.20;4.10;;;5.90;99.90;;;;;;4997089;28;20110;-79
2021/12/05 07:21:40;;;;;;;5.95;3.10;;;5.80;99.90;;;;;;4995998;28;20117;-77
2021/12/05 07:24:16;;;;;;;5.18;2.97;;;5.90;99.90;;;;;;4996113;28;20038;-75
2021/12/05 07:40:22;;;;;;;4.65;2.55;;;5.90;99.90;;;;;;4997683;28;20029;-76
2021/12/05 07:40:31;;;;;;;5.57;2.80;;;5.90;99.90;;;;;;4996547;28;20053;-75
2021/12/05 07:43:23;;;;;;;4.28;2.60;;;5.90;99.90;;;;;;4995826;28;20030;-74
2021/12/05 07:45:57;;;;;;;7.47;2.85;;;5.90;99.90;;;;;;4996132;28;20048;-73
2021/12/05 07:48:31;;;;;;;5.07;3.00;;;5.90;99.90;;;;;;4995382;28;20034;-79
2021/12/05 07:51:20;;;;;;;5.88;2.72;;;5.90;99.90;;;;;;4995593;28;20026;-78
2021/12/05 07:56:39;;;;;;;6.03;3.45;;;5.90;99.90;;;;;;4997464;28;20117;-76
2021/12/05 08:16:27;;;;;;;4.78;3.28;;;5.80;99.90;;;;;;4996805;28;20485;-80
2021/12/05 08:18:28;;;;;;;5.53;3.55;;;5.80;99.90;;;;;;4995839;28;20109;-81
2021/12/05 08:20:54;;;;;;;6.32;3.65;;;5.70;99.90;;;;;;4995057;28;20529;-79
2021/12/05 08:23:22;;;;;;;6.07;3.58;;;5.70;99.90;;;;;;4995310;28;20356;-79
2021/12/05 08:25:56;;;;;;;8.25;3.45;;;5.70;99.90;;;;;;4995309;28;20530;-79
2021/12/05 08:31:18;;;;;;;4.53;2.72;;;5.80;99.90;;;;;;4996666;28;20382;-80
2021/12/05 08:44:53;;;;;;;5.40;2.97;;;5.90;99.90;;;;;;4996220;28;20034;-80
2021/12/05 09:23:21;;;;;;;6.38;3.72;;;6.10;99.90;;;;;;4995987;28;20115;-81
2021/12/05 09:31:21;;;;;;;6.05;3.58;;;6.20;99.90;;;;;;4995461;28;20117;-79
2021/12/05 10:18:52;;;;;;;7.90;3.80;;;6.40;99.90;;;;;;4995817;28;20100;-80
2021/12/05 10:27:24;;;;;;;7.00;3.63;;;6.40;99.90;;;;;;4995068;28;20045;-79
2021/12/05 10:36:16;;;;;;;5.15;3.08;;;6.40;99.90;;;;;;4995111;28;20097;-80
2021/12/05 10:38:50;;;;;;;6.70;3.58;;;6.30;99.90;;;;;;4995600;28;20034;-80
2021/12/05 10:44:07;;;;;;;6.28;3.53;;;6.40;99.90;;;;;;4998011;28;20026;-79
2021/12/05 10:46:39;;;;;;;6.60;3.72;;;6.40;99.90;;;;;;4996722;28;20098;-79
2021/12/05 10:49:12;;;;;;;8.77;3.78;;;6.40;99.90;;;;;;4998699;28;20060;-80
2021/12/05 10:52:00;;;;;;;6.18;3.17;;;6.50;99.90;;;;;;5026800;28;20143;-80
2021/12/05 10:54:28;;;;;;;7.55;3.80;;;6.50;99.90;;;;;;4957946;29;20039;-79
2021/12/05 10:57:04;;;;;;;5.40;3.00;;;6.40;99.90;;;;;;4954506;29;20039;-81
2021/12/05 10:59:38;;;;;;;7.85;3.92;;;6.50;99.90;;;;;;4954097;29;20043;-79
2021/12/05 11:02:17;;;;;;;5.55;3.05;;;6.50;99.90;;;;;;4954886;29;20083;-82
2021/12/05 11:04:46;;;;;;;6.35;3.35;;;6.50;99.90;;;;;;4952783;29;20134;-79
2021/12/05 11:07:15;;;;;;;5.43;3.22;;;6.60;99.90;;;;;;4953946;29;20136;-79
2021/12/05 11:09:47;;;;;;;8.00;3.65;;;6.60;99.90;;;;;;4953988;29;20023;-79
2021/12/05 11:12:24;;;;;;;5.63;3.33;;;6.60;99.90;;;;;;4953471;29;20035;-78
2021/12/05 11:14:53;;;;;;;6.30;3.53;;;6.60;99.90;;;;;;4954628;29;20062;-79
2021/12/05 11:17:22;;;;;;;6.43;3.53;;;6.70;99.90;;;;;;4953547;29;20051;-80
2021/12/05 11:19:51;;;;;;;6.53;3.60;;;6.80;99.90;;;;;;4953422;29;20468;-79
2021/12/05 11:22:29;;;;;;;6.22;3.20;;;6.80;99.90;;;;;;4937607;29;20035;-81
2021/12/05 11:24:57;;;;;;;7.28;4.75;;;6.90;99.90;;;;;;4953567;29;20114;-80
2021/12/05 11:27:29;;;;;;;6.32;3.38;;;6.90;99.90;;;;;;4954056;29;20031;-79
2021/12/05 11:30:18;;;;;;;9.45;4.28;;;6.90;99.90;;;;;;4954838;29;20027;-80
2021/12/05 11:32:46;;;;;;;7.03;3.95;;;6.90;99.90;;;;;;4976602;28;20044;-80
2021/12/05 11:35:24;;;;;;;7.25;3.90;;;6.90;99.90;;;;;;4976667;28;20038;-79
2021/12/05 11:37:54;;;;;;;7.65;4.13;;;6.90;99.90;;;;;;4976983;28;20598;-80
2021/12/05 11:40:22;;;;;;;6.32;3.70;;;6.90;99.90;;;;;;4977038;28;20028;-79
2021/12/05 11:42:59;;;;;;;9.75;4.85;;;6.90;99.90;;;;;;4976615;28;20490;-80
2021/12/05 11:45:25;;;;;;;8.05;4.68;;;6.90;99.90;;;;;;4961832;28;20100;-80
2021/12/05 11:47:52;;;;;;;6.90;4.30;;;6.90;99.90;;;;;;4976389;28;20568;-81
2021/12/05 11:50:34;;;;;;;7.25;4.28;;;7.00;99.90;;;;;;4963849;28;20054;-79
2021/12/05 11:53:01;;;;;;;6.88;3.67;;;7.00;99.90;;;;;;4981028;28;20026;-80
2021/12/05 11:55:29;;;;;;;6.93;3.63;;;7.00;99.90;;;;;;4996149;28;20467;-80
2021/12/05 11:57:55;;;;;;;8.32;4.10;;;7.10;99.90;;;;;;4979635;28;20049;-80
2021/12/05 12:00:23;;;;;;;7.25;4.05;;;7.10;99.90;;;;;;4962705;28;20122;-81
2021/12/05 12:02:50;;;;;;;10.35;4.65;;;7.00;99.90;;;;;;4979317;28;20157;-80
2021/12/05 12:05:30;;;;;;;9.23;3.78;;;7.00;99.90;;;;;;4997900;28;20537;-80
2021/12/05 12:08:07;;;;;;;8.80;3.85;;;7.00;99.90;;;;;;4981127;28;20505;-79
2021/12/05 12:10:35;;;;;;;6.05;3.42;;;7.10;99.90;;;;;;5009135;28;20037;-80
2021/12/05 12:13:22;;;;;;;6.32;3.40;;;7.10;99.90;;;;;;5017329;28;20451;-81
2021/12/05 12:15:58;;;;;;;6.50;3.83;;;7.20;99.90;;;;;;5016918;28;20112;-80
2021/12/05 12:18:29;;;;;;;7.57;3.58;;;7.20;99.90;;;;;;5017317;28;20022;-81
2021/12/05 12:20:58;;;;;;;6.57;3.47;;;7.20;99.90;;;;;;5017328;28;20045;-79
2021/12/05 12:23:27;;;;;;;7.28;3.88;;;7.20;99.90;;;;;;5017975;28;20056;-80
2021/12/05 12:25:58;;;;;;;5.72;3.45;;;7.20;99.90;;;;;;5017822;28;20090;-81
2021/12/05 12:28:25;;;;;;;6.32;3.72;;;7.20;99.90;;;;;;5001348;28;20410;-81
2021/12/05 12:30:59;;;;;;;6.60;3.88;;;7.20;99.90;;;;;;5001745;28;20026;-80
2021/12/05 12:33:27;;;;;;;6.60;3.65;;;7.20;99.90;;;;;;5018082;28;20033;-80
2021/12/05 12:35:54;;;;;;;7.57;3.55;;;7.20;99.90;;;;;;5016245;28;20026;-80
2021/12/05 12:38:41;;;;;;;5.10;3.15;;;7.20;99.90;;;;;;5018166;28;20040;-79
2021/12/05 12:41:23;;;;;;;6.78;3.72;;;7.30;99.90;;;;;;5016962;28;20481;-79
2021/12/05 12:44:05;;;;;;;7.30;3.70;;;7.20;99.90;;;;;;5017040;28;20037;-79
2021/12/05 12:46:33;;;;;;;7.22;4.20;;;7.30;99.90;;;;;;5000509;28;20034;-79
2021/12/05 12:49:18;;;;;;;6.85;4.05;;;7.20;99.90;;;;;;5023988;28;20354;-79
2021/12/05 12:51:49;;;;;;;6.43;3.05;;;7.20;99.90;;;;;;5041417;28;20385;-79
2021/12/05 12:54:29;;;;;;;6.18;3.70;;;7.20;99.90;;;;;;5040214;28;20025;-80
2021/12/05 12:57:13;;;;;;;6.22;3.40;;;7.20;99.90;;;;;;5040554;28;20021;-79
2021/12/05 13:00:00;;;;;;;5.15;3.35;;;7.20;99.90;;;;;;5040069;28;20025;-79
2021/12/05 13:05:41;;;;;;;7.30;3.47;;;7.30;99.90;;;;;;5053065;28;20480;-79
2021/12/05 13:11:15;;;;;;;5.05;3.10;;;7.30;99.90;;;;;;5056846;28;20380;-79
2021/12/05 13:13:46;;;;;;;5.05;2.95;;;7.30;99.80;;;;;;5039349;28;20025;-79
2021/12/05 13:16:16;;;;;;;5.07;2.70;;;7.30;99.80;;;;;;5038927;28;20021;-80
2021/12/05 13:18:46;;;;;;;5.13;2.83;;;7.30;99.90;;;;;;5039211;28;20098;-79
2021/12/05 13:21:18;;;;;;;5.45;2.92;;;7.30;99.90;;;;;;5038381;28;20334;-80
2021/12/05 13:23:50;;;;;;;6.97;2.92;;;7.20;99.90;;;;;;5039060;28;20024;-79
2021/12/05 13:26:25;;;;;;;4.20;2.92;;;7.20;99.90;;;;;;5039422;28;20032;-80
2021/12/05 13:29:12;;;;;;;4.65;2.80;;;7.20;99.90;;;;;;5038403;28;20107;-78
2021/12/05 13:31:56;;;;;;;4.60;2.88;;;7.20;99.90;;;;;;5037407;28;20040;-79
2021/12/05 13:34:40;;;;;;;5.38;3.25;;;7.20;99.90;;;;;;5037790;28;20040;-78
2021/12/05 13:37:06;;;;;;;5.18;2.78;;;7.20;99.90;;;;;;5038347;28;20532;-79
2021/12/05 13:39:32;;;;;;;5.43;3.13;;;7.10;99.90;;;;;;5037275;28;20071;-78
2021/12/05 13:42:16;;;;;;;5.80;2.85;;;7.20;99.90;;;;;;5037023;28;20025;-78
2021/12/05 13:45:24;;;;;;;3.50;2.22;;;7.20;99.90;;;;;;5037912;28;20063;-80
2021/12/05 13:47:53;;;;;;;5.07;3.08;;;7.20;99.90;;;;;;5037606;28;20021;-78
2021/12/05 13:50:21;;;;;;;6.30;3.13;;;7.20;99.90;;;;;;5034442;28;20045;-79
2021/12/05 13:52:49;;;;;;;4.95;2.97;;;7.10;99.90;;;;;;5033395;28;20048;-80
2021/12/05 13:55:53;;;;;;;4.63;3.00;;;7.20;99.90;;;;;;5035192;28;20462;-80
2021/12/05 13:58:22;;;;;;;4.70;2.88;;;7.10;99.90;;;;;;4940634;29;20031;-80
2021/12/05 14:00:59;;;;;;;4.90;2.90;;;7.10;99.90;;;;;;4939558;29;20413;-79
2021/12/05 14:03:49;;;;;;;5.18;3.08;;;7.10;99.90;;;;;;4938709;29;20063;-80
2021/12/05 14:06:36;;;;;;;4.95;3.17;;;7.00;99.90;;;;;;4954844;29;20023;-79
2021/12/05 14:09:31;;;;;;;4.57;3.08;;;7.00;99.90;;;;;;4954416;29;20528;-80
2021/12/05 14:12:19;;;;;;;4.70;2.95;;;7.00;99.90;;;;;;4937665;29;20467;-79
2021/12/05 14:14:55;;;;;;;5.90;3.45;;;7.00;99.90;;;;;;4953425;29;20023;-80
2021/12/05 14:17:25;;;;;;;6.25;3.28;;;7.00;99.90;;;;;;4953683;29;20110;-80
2021/12/05 14:20:05;;;;;;;4.88;3.05;;;7.00;99.90;;;;;;4954091;29;20464;-80
2021/12/05 14:22:33;;;;;;;5.10;3.05;;;7.00;99.90;;;;;;4953657;29;20039;-80
2021/12/05 14:25:02;;;;;;;5.03;3.03;;;7.00;99.90;;;;;;4953705;29;20059;-79
2021/12/05 14:27:31;;;;;;;4.72;2.97;;;7.00;99.90;;;;;;4953777;29;20451;-79
2021/12/05 14:29:58;;;;;;;5.97;3.30;;;7.00;99.90;;;;;;4953971;29;20043;-79
2021/12/05 14:32:33;;;;;;;9.20;4.35;;;7.00;99.90;;;;;;4953296;29;20031;-84
2021/12/05 14:35:17;;;;;;;9.02;5.45;;;7.10;99.90;;;;;;4965454;28;20060;-80
2021/12/05 14:37:46;;;;;;;11.68;4.85;;;7.00;99.90;;;;;;5033280;28;20025;-79
2021/12/05 14:40:15;;;;;;;8.48;4.50;;;7.00;99.90;;;;;;5016540;28;20047;-78
2021/12/05 14:42:43;;;;;;;8.95;4.60;;;7.00;99.90;;;;;;5032579;28;20095;-79
2021/12/05 14:45:12;;;;;;;8.88;5.00;;;7.00;99.90;;;;;;5032038;28;20186;-80
2021/12/05 14:47:42;;;;;;;8.32;4.53;;;7.00;99.90;;;;;;5032320;28;20031;-80
2021/12/05 14:50:16;;;;;;;8.70;4.78;;;7.00;99.90;;;;;;5032043;28;20088;-79
2021/12/05 14:52:46;;;;;;;10.05;4.55;;;7.00;99.90;;;;;;5033956;28;20030;-80
2021/12/05 14:55:14;;;;;;;7.45;4.68;;;7.00;99.90;;;;;;5032921;28;20045;-79
2021/12/05 14:57:47;;;;;;;7.35;4.75;;;6.90;99.90;;;;;;5033415;28;20025;-79
2021/12/05 15:00:32;;;;;;;8.52;3.63;;;7.00;99.90;;;;;;5033210;28;20026;-79
2021/12/05 15:03:04;;;;;;;7.00;4.18;;;6.90;99.90;;;;;;5032329;28;20037;-78
2021/12/05 15:05:31;;;;;;;7.07;4.32;;;6.90;99.90;;;;;;5032618;28;20064;-80
2021/12/05 15:08:06;;;;;;;7.35;4.07;;;6.90;99.90;;;;;;5033239;28;20113;-79
2021/12/05 15:10:32;;;;;;;5.88;3.70;;;6.90;99.90;;;;;;5032755;28;20017;-78
2021/12/05 15:12:58;;;;;;;8.50;4.05;;;6.90;99.90;;;;;;5033536;28;20349;-80
2021/12/05 15:15:28;;;;;;;9.65;4.05;;;6.90;99.90;;;;;;5034569;28;20021;-80
2021/12/05 15:17:56;;;;;;;8.07;4.63;;;6.90;99.90;;;;;;5032689;28;20458;-78
2021/12/05 15:20:28;;;;;;;7.70;3.97;;;6.90;99.90;;;;;;5032654;28;20041;-80
2021/12/05 15:23:00;;;;;;;6.13;3.97;;;6.90;99.90;;;;;;5016370;28;20030;-80
2021/12/05 15:25:28;;;;;;;8.13;4.30;;;6.90;99.90;;;;;;5035667;28;20025;-79
2021/12/05 15:27:55;;;;;;;5.82;3.95;;;6.90;99.90;;;;;;5037015;28;20026;-80
2021/12/05 15:30:27;;;;;;;7.45;3.70;;;6.90;99.90;;;;;;5036262;28;20389;-80
2021/12/05 15:32:56;;;;;;;7.22;4.30;;;6.90;99.90;;;;;;5037043;28;20098;-80
2021/12/05 15:35:24;;;;;;;8.15;4.43;;;6.90;99.90;;;;;;5036522;28;20075;-80
2021/12/05 15:37:54;;;;;;;6.53;4.28;;;6.90;99.90;;;;;;5036468;28;20021;-80
2021/12/05 15:40:23;;;;;;;6.57;4.40;;;6.90;99.90;;;;;;5037442;28;20025;-80
2021/12/05 15:42:49;;;;;;;7.15;3.50;;;6.90;99.90;;;;;;5019403;28;20322;-79
2021/12/05 15:45:19;;;;;;;7.80;4.32;;;6.80;99.90;;;;;;5036151;28;20025;-80
2021/12/05 15:47:46;;;;;;;7.93;4.57;;;6.80;99.90;;;;;;5036697;28;20113;-79
2021/12/05 15:50:21;;;;;;;7.05;4.10;;;6.80;99.90;;;;;;5048030;28;20041;-79
2021/12/05 15:52:49;;;;;;;6.15;3.50;;;6.80;99.90;;;;;;5039280;28;20025;-80
2021/12/05 15:55:39;;;;;;;7.38;3.95;;;6.80;99.90;;;;;;5039266;28;20025;-80
2021/12/05 15:58:08;;;;;;;7.43;3.60;;;6.80;99.90;;;;;;5042565;28;20034;-79
2021/12/05 16:00:48;;;;;;;7.47;4.60;;;6.80;99.90;;;;;;5039069;28;20025;-80
2021/12/05 16:03:23;;;;;;;9.13;4.55;;;6.80;99.90;;;;;;5039202;28;20036;-80
2021/12/05 16:05:56;;;;;;;8.57;4.82;;;6.80;99.90;;;;;;5056762;28;20445;-80
2021/12/05 16:08:23;;;;;;;6.15;4.10;;;6.80;99.90;;;;;;5040204;28;20029;-80
2021/12/05 16:10:51;;;;;;;8.10;3.97;;;6.80;99.90;;;;;;5023345;28;20056;-79
2021/12/05 16:13:22;;;;;;;6.50;3.85;;;6.80;99.90;;;;;;5040162;28;20044;-80
2021/12/05 16:15:54;;;;;;;8.10;3.88;;;6.80;99.90;;;;;;5058076;28;20033;-80
2021/12/05 16:18:29;;;;;;;7.45;4.25;;;6.80;99.90;;;;;;5024246;28;20025;-79
2021/12/05 16:21:01;;;;;;;7.72;4.32;;;6.80;99.90;;;;;;5058210;28;20021;-79
2021/12/05 16:23:29;;;;;;;6.85;3.83;;;6.80;99.90;;;;;;5040565;28;20028;-79
2021/12/05 16:25:57;;;;;;;6.35;3.90;;;6.80;99.90;;;;;;5040186;28;20033;-79
2021/12/05 16:28:26;;;;;;;7.43;4.03;;;6.80;99.90;;;;;;5040092;28;20117;-79
2021/12/05 16:30:59;;;;;;;6.30;3.92;;;6.80;99.90;;;;;;5040634;28;20025;-80
2021/12/05 16:33:28;;;;;;;6.47;3.85;;;6.80;99.90;;;;;;5022226;28;20128;-80
2021/12/05 16:35:55;;;;;;;7.28;4.28;;;6.70;99.90;;;;;;5055348;28;20013;-79
2021/12/05 16:38:23;;;;;;;7.40;4.85;;;6.70;99.90;;;;;;5037705;28;20112;-79
2021/12/05 16:40:54;;;;;;;9.93;5.82;;;6.70;99.90;;;;;;5037216;28;20021;-79
2021/12/05 16:43:20;;;;;;;8.67;5.20;;;6.70;99.90;;;;;;5037071;28;20067;-80
2021/12/05 16:45:46;;;;;;;11.75;6.15;;;6.70;99.90;;;;;;5054557;28;20278;-80
2021/12/05 16:48:16;;;;;;;10.32;5.80;;;6.70;99.90;;;;;;5055412;28;20369;-80
2021/12/05 16:50:43;;;;;;;9.25;5.75;;;6.70;99.90;;;;;;5033739;28;20049;-80
2021/12/05 16:53:11;;;;;;;9.55;5.32;;;6.70;99.90;;;;;;5035160;28;20029;-76
2021/12/05 16:55:42;;;;;;;9.63;5.25;;;6.70;99.90;;;;;;5034255;28;20032;-75
2021/12/05 16:58:17;;;;;;;8.95;5.93;;;6.60;99.90;;;;;;5033490;28;20017;-78
2021/12/05 17:00:50;;;;;;;9.18;5.40;;;6.70;99.90;;;;;;5034453;28;20032;-74
2021/12/05 17:03:20;;;;;;;7.50;4.93;;;6.60;99.90;;;;;;5034346;28;20033;-74
2021/12/05 17:05:48;;;;;;;10.98;5.32;;;6.60;99.90;;;;;;5033173;28;20112;-75
2021/12/05 17:08:20;;;;;;;10.00;5.40;;;6.60;99.90;;;;;;5034779;28;20021;-75
2021/12/05 17:11:09;;;;;;;10.00;4.82;;;6.60;99.90;;;;;;5033336;28;20022;-75
2021/12/05 17:13:42;;;;;;;9.20;5.70;;;6.60;99.90;;;;;;5034352;28;20040;-79
2021/12/05 17:16:24;;;;;;;8.30;4.97;;;6.60;99.90;;;;;;5034765;28;20025;-76
2021/12/05 17:18:53;;;;;;;9.43;5.40;;;6.60;99.90;;;;;;5034130;28;20030;-77
2021/12/05 17:21:33;;;;;;;10.35;5.47;;;6.60;99.90;;;;;;5033107;28;20474;-76
2021/12/05 17:24:20;;;;;;;11.40;5.78;;;6.60;99.90;;;;;;5032641;28;20029;-77
2021/12/05 17:27:06;;;;;;;9.32;5.70;;;6.60;99.90;;;;;;5033871;28;20028;-77
2021/12/05 17:29:39;;;;;;;13.57;6.70;;;6.60;99.90;;;;;;5034162;28;20014;-75
2021/12/05 17:32:10;;;;;;;10.57;6.65;;;6.60;99.90;;;;;;5033924;28;20067;-77
2021/12/05 17:34:41;;;;;;;14.02;7.60;;;6.60;99.90;;;;;;5032778;28;20018;-75
2021/12/05 17:37:10;;;;;;;13.80;6.78;;;6.70;99.90;;;;;;5034082;28;20033;-75
2021/12/05 17:39:41;;;;;;;13.63;6.45;;;6.60;99.90;;;;;;5032408;28;20022;-76
2021/12/05 17:42:10;;;;;;;11.88;6.60;;;6.60;99.90;;;;;;5031964;28;20026;-75
2021/12/05 17:44:37;;;;;;;13.02;7.03;;;6.60;99.90;;;;;;5032114;28;20026;-76
2021/12/05 17:47:06;;;;;;;14.52;7.03;;;6.60;99.90;;;;;;5033045;28;20052;-74
2021/12/05 17:49:34;;;;;;;13.05;7.22;;;6.70;99.90;;;;;;5031913;28;20116;-75
2021/12/05 17:52:01;;;;;;;13.93;7.43;;;6.60;99.90;;;;;;5033491;28;20120;-77
2021/12/05 17:54:40;;;;;;;14.63;7.10;;;6.60;99.90;;;;;;5033491;28;20025;-75
2021/12/05 17:57:12;;;;;;;15.40;7.60;;;6.70;99.90;;;;;;5032386;28;20112;-75
2021/12/05 17:59:55;;;;;;;15.65;7.85;;;6.60;99.90;;;;;;5033976;28;20156;-75
2021/12/05 18:05:08;;;;;;;13.25;7.50;;;6.60;99.90;;;;;;5034157;28;20492;-76
2021/12/05 18:07:34;;;;;;;15.50;8.38;;;6.60;99.90;;;;;;5032406;28;20104;-82
2021/12/05 18:10:00;;;;;;;13.25;7.40;;;6.60;99.90;;;;;;5032198;28;20116;-74
2021/12/05 18:12:34;;;;;;;13.98;7.32;;;6.60;99.90;;;;;;5031884;28;20137;-76
2021/12/05 18:15:13;;;;;;;12.75;6.60;;;6.60;99.90;;;;;;5033735;28;20049;-75
2021/12/05 18:17:40;;;;;;;13.52;7.35;;;6.60;99.90;;;;;;5033533;28;20096;-84
2021/12/05 18:20:09;;;;;;;12.35;6.82;;;6.60;99.90;;;;;;5033005;28;20052;-77
2021/12/05 18:22:35;;;;;;;13.18;7.05;;;6.60;99.90;;;;;;5031823;28;20032;-77
2021/12/05 18:25:03;;;;;;;12.88;7.25;;;6.60;99.90;;;;;;5015558;28;20437;-77
2021/12/05 18:27:29;;;;;;;13.85;7.70;;;6.70;99.90;;;;;;5031607;28;20037;-76
2021/12/05 18:29:55;;;;;;;15.18;7.35;;;6.60;99.90;;;;;;5032211;28;20018;-78
2021/12/05 18:32:21;;;;;;;12.23;6.80;;;6.60;99.90;;;;;;5032936;28;20029;-75
2021/12/05 18:34:47;;;;;;;12.80;6.95;;;6.60;99.90;;;;;;5031521;28;20025;-75
2021/12/05 18:37:13;;;;;;;16.05;7.60;;;6.60;99.90;;;;;;5032560;28;20380;-78
2021/12/05 18:39:44;;;;;;;13.00;7.38;;;6.60;99.90;;;;;;5032722;28;20021;-77
2021/12/05 18:42:14;;;;;;;13.30;7.40;;;6.60;99.90;;;;;;5032741;28;20101;-75
2021/12/05 18:44:46;;;;;;;14.52;7.50;;;6.70;99.90;;;;;;5032373;28;20498;-76
2021/12/05 18:47:12;;;;;;;17.17;8.90;;;6.70;99.90;;;;;;5032699;28;20047;-75
2021/12/05 18:49:38;;;;;;;16.38;8.50;;;6.60;99.90;;;;;;5038430;28;20053;-76
2021/12/05 18:52:05;;;;;;;13.13;8.07;;;6.60;99.90;;;;;;5052563;28;20538;-74